Terminal Aerodrome Forecast
Issued by NWS Grand Junction, CO

Home | Current Version | Previous Version | Text Only | Print | Product List | Glossary On
Versions: 1 2 3 4 5 6 7 8 9 10 11 12 13 14 15 16 17 18 19 20 21 22 23 24
000
FTUS45 KGJT 310533
TAFGJT
TAF
KGJT 310533Z 3106/0106 28009KT 6SM -RA FEW060 BKN090 OVC110
     FM310800 11008KT P6SM VCSH FEW080 BKN100
     FM311400 13008KT P6SM SCT100 SCT200
     FM312000 24008KT P6SM SCT100 SCT200
     FM010200 08008KT P6SM FEW100 SCT200=

USA.gov is the U.S. government's official web portal to all federal, state and local government web resources and services.